Time;durP1;ratioP1;P1;durP2;ratioP2;P2;SDS_P1;SDS_P2;PMS_P1;PMS_P2;Temp;Humidity;BMP_temperature;BMP_pressure;BME280_temperature;BME280_humidity;BME280_pressure;Samples;Min_cycle;Max_cycle;Signal;HPM_P1;HPM_P2
2021/03/07 00:00:25;;;;;;;11.63;2.97;;;;;;;;;;5080697;28;20452;-71
2021/03/07 00:02:53;;;;;;;5.70;2.10;;;;;;;;;;5079385;28;20543;-70
2021/03/07 00:05:21;;;;;;;3.60;2.10;;;;;;;;;;5080257;28;20459;-71
2021/03/07 00:07:49;;;;;;;3.93;2.10;;;;;;;;;;5079902;28;20466;-71
2021/03/07 00:10:18;;;;;;;2.77;1.50;;;;;;;;;;5081057;28;20455;-71
2021/03/07 00:12:47;;;;;;;4.07;1.90;;;;;;;;;;5080454;28;20546;-71
2021/03/07 00:15:15;;;;;;;1.83;1.10;;;;;;;;;;5079571;28;20456;-71
2021/03/07 00:17:42;;;;;;;3.57;1.70;;;;;;;;;;5079902;28;20580;-70
2021/03/07 00:20:11;;;;;;;3.93;1.47;;;;;;;;;;5080077;28;20728;-71
2021/03/07 00:22:40;;;;;;;3.07;2.20;;;;;;;;;;5079494;28;20798;-71
2021/03/07 00:25:08;;;;;;;2.10;1.73;;;;;;;;;;5080209;28;20521;-71
2021/03/07 00:27:35;;;;;;;4.90;1.50;;;;;;;;;;5080103;28;20500;-71
2021/03/07 00:30:04;;;;;;;2.70;1.43;;;;;;;;;;5079511;28;20452;-71
2021/03/07 00:32:31;;;;;;;7.83;1.80;;;;;;;;;;5079843;28;20464;-71
2021/03/07 00:34:58;;;;;;;2.10;1.20;;;;;;;;;;5079534;28;20487;-71
2021/03/07 00:37:35;;;;;;;2.80;1.67;;;;;;;;;;5079200;28;20470;-70
2021/03/07 00:40:15;;;;;;;4.30;1.93;;;;;;;;;;5079117;28;20472;-70
2021/03/07 00:42:43;;;;;;;3.17;1.70;;;;;;;;;;5079851;28;20917;-71
2021/03/07 00:45:13;;;;;;;2.60;1.50;;;;;;;;;;5077391;28;20468;-71
2021/03/07 00:47:40;;;;;;;4.90;1.90;;;;;;;;;;5078279;28;20459;-70
2021/03/07 00:50:09;;;;;;;2.27;1.20;;;;;;;;;;5079109;28;20449;-71
2021/03/07 00:52:37;;;;;;;5.73;1.93;;;;;;;;;;5077848;28;20543;-71
2021/03/07 00:55:04;;;;;;;3.57;1.93;;;;;;;;;;5078699;28;20481;-72
2021/03/07 00:57:32;;;;;;;4.20;2.20;;;;;;;;;;5077697;28;20448;-71
2021/03/07 01:00:00;;;;;;;5.63;2.20;;;;;;;;;;5077909;28;20466;-71
2021/03/07 01:02:29;;;;;;;4.10;2.20;;;;;;;;;;5078406;28;20876;-71
2021/03/07 01:04:56;;;;;;;4.23;1.60;;;;;;;;;;5077615;28;20445;-71
2021/03/07 01:07:28;;;;;;;2.50;1.67;;;;;;;;;;5077700;28;20488;-71
2021/03/07 01:10:02;;;;;;;4.70;1.80;;;;;;;;;;5078844;28;20773;-71
2021/03/07 01:12:30;;;;;;;2.80;1.60;;;;;;;;;;5078295;28;20467;-71
2021/03/07 01:14:57;;;;;;;3.37;1.40;;;;;;;;;;5078685;28;20473;-71
2021/03/07 01:17:24;;;;;;;4.40;1.80;;;;;;;;;;5078003;28;20448;-71
2021/03/07 01:19:53;;;;;;;8.70;2.23;;;;;;;;;;5077930;28;20511;-70
2021/03/07 01:22:21;;;;;;;4.87;2.03;;;;;;;;;;5078767;28;20723;-71
2021/03/07 01:24:48;;;;;;;3.83;1.70;;;;;;;;;;5077726;28;20456;-70
2021/03/07 01:27:15;;;;;;;4.00;1.73;;;;;;;;;;5078385;28;20496;-70
2021/03/07 01:29:47;;;;;;;2.70;1.70;;;;;;;;;;5078600;28;20514;-71
2021/03/07 01:32:18;;;;;;;2.10;1.60;;;;;;;;;;5077940;28;20523;-71
2021/03/07 01:34:46;;;;;;;4.80;1.40;;;;;;;;;;5078517;28;20452;-71
2021/03/07 01:37:18;;;;;;;7.10;1.90;;;;;;;;;;5078489;28;20879;-71
2021/03/07 01:39:45;;;;;;;5.40;1.73;;;;;;;;;;5077166;28;20460;-72
2021/03/07 01:42:13;;;;;;;3.23;1.60;;;;;;;;;;5078503;28;20465;-71
2021/03/07 01:44:40;;;;;;;4.43;1.80;;;;;;;;;;5077768;28;20453;-71
2021/03/07 01:47:07;;;;;;;4.67;1.47;;;;;;;;;;5077743;28;20900;-71
2021/03/07 01:49:39;;;;;;;1.73;1.20;;;;;;;;;;5077354;28;20458;-71
2021/03/07 01:52:06;;;;;;;3.07;1.10;;;;;;;;;;5077802;28;20553;-70
2021/03/07 01:54:41;;;;;;;3.03;1.37;;;;;;;;;;5078012;28;20774;-70
2021/03/07 01:57:12;;;;;;;4.30;1.70;;;;;;;;;;5077614;28;20436;-71
2021/03/07 01:59:40;;;;;;;3.10;1.97;;;;;;;;;;5077530;28;20463;-71
2021/03/07 02:02:08;;;;;;;1.70;0.77;;;;;;;;;;5077714;28;20457;-71
2021/03/07 02:04:35;;;;;;;3.80;1.60;;;;;;;;;;5078636;28;20453;-71
2021/03/07 02:07:05;;;;;;;2.37;1.17;;;;;;;;;;5077555;28;20488;-71
2021/03/07 02:09:33;;;;;;;7.53;1.23;;;;;;;;;;5079505;28;21164;-71
2021/03/07 02:12:01;;;;;;;3.10;1.10;;;;;;;;;;5079094;28;20461;-71
2021/03/07 02:14:30;;;;;;;5.73;1.60;;;;;;;;;;5076915;28;20460;-71
2021/03/07 02:16:58;;;;;;;4.00;1.40;;;;;;;;;;5078040;28;20470;-71
2021/03/07 02:19:26;;;;;;;3.40;1.20;;;;;;;;;;5077046;28;21113;-71
2021/03/07 02:21:58;;;;;;;2.57;1.27;;;;;;;;;;5078084;28;20462;-71
2021/03/07 02:24:31;;;;;;;2.23;1.03;;;;;;;;;;5079269;28;20459;-71
2021/03/07 02:26:58;;;;;;;4.03;1.50;;;;;;;;;;5076913;28;20490;-71
2021/03/07 02:29:26;;;;;;;4.30;1.70;;;;;;;;;;5078899;28;20855;-70
2021/03/07 02:31:54;;;;;;;3.60;1.63;;;;;;;;;;5077737;28;20464;-71
2021/03/07 02:34:25;;;;;;;7.73;1.67;;;;;;;;;;5077044;28;20441;-70
2021/03/07 02:36:54;;;;;;;2.27;1.27;;;;;;;;;;5078216;28;20490;-70
2021/03/07 02:39:25;;;;;;;2.23;1.20;;;;;;;;;;5077482;28;20535;-71
2021/03/07 02:41:54;;;;;;;3.80;1.30;;;;;;;;;;5077237;28;20820;-71
2021/03/07 02:44:21;;;;;;;3.30;1.33;;;;;;;;;;5078086;28;20929;-70
2021/03/07 02:46:49;;;;;;;3.10;1.00;;;;;;;;;;5076830;28;20659;-70
2021/03/07 02:49:18;;;;;;;3.27;1.50;;;;;;;;;;5078650;28;20460;-71
2021/03/07 02:51:47;;;;;;;5.67;3.00;;;;;;;;;;5079142;28;20754;-71
2021/03/07 02:54:15;;;;;;;3.67;1.43;;;;;;;;;;5076397;28;20455;-71
2021/03/07 02:56:46;;;;;;;3.83;1.40;;;;;;;;;;5078810;28;20490;-72
2021/03/07 02:59:15;;;;;;;5.57;1.43;;;;;;;;;;5079886;28;20457;-71
2021/03/07 03:01:43;;;;;;;3.87;1.60;;;;;;;;;;5078865;28;20453;-71
2021/03/07 03:04:11;;;;;;;3.17;1.57;;;;;;;;;;5082505;28;20483;-71
2021/03/07 03:06:39;;;;;;;2.20;1.27;;;;;;;;;;5081031;28;20522;-70
2021/03/07 03:09:07;;;;;;;2.87;1.40;;;;;;;;;;5083260;28;20453;-71
2021/03/07 03:11:37;;;;;;;2.90;1.20;;;;;;;;;;5082540;28;20521;-71
2021/03/07 03:14:04;;;;;;;2.13;1.07;;;;;;;;;;5080798;28;20929;-71
2021/03/07 03:16:37;;;;;;;3.70;1.60;;;;;;;;;;5081663;28;20768;-71
2021/03/07 03:19:06;;;;;;;6.47;1.23;;;;;;;;;;5082000;28;20448;-71
2021/03/07 03:21:34;;;;;;;2.10;1.00;;;;;;;;;;5080880;28;20457;-71
2021/03/07 03:24:02;;;;;;;1.80;0.70;;;;;;;;;;5082011;28;20465;-70
2021/03/07 03:26:29;;;;;;;3.73;1.27;;;;;;;;;;5080595;28;20487;-71
2021/03/07 03:28:58;;;;;;;4.27;1.83;;;;;;;;;;5081675;28;20449;-71
2021/03/07 03:31:26;;;;;;;2.90;1.10;;;;;;;;;;5081650;28;20726;-70
2021/03/07 03:33:55;;;;;;;3.47;1.60;;;;;;;;;;5080217;28;20521;-71
2021/03/07 03:36:22;;;;;;;2.77;1.30;;;;;;;;;;5081775;28;20807;-71
2021/03/07 03:38:51;;;;;;;2.57;1.13;;;;;;;;;;5082190;28;20433;-71
2021/03/07 03:41:18;;;;;;;3.10;1.40;;;;;;;;;;5080124;28;20474;-71
2021/03/07 03:43:47;;;;;;;2.00;0.90;;;;;;;;;;5081343;28;20453;-71
2021/03/07 03:46:15;;;;;;;2.73;0.87;;;;;;;;;;5079884;28;20488;-70
2021/03/07 03:48:44;;;;;;;4.20;1.10;;;;;;;;;;5081417;28;20481;-71
2021/03/07 03:51:13;;;;;;;3.43;0.83;;;;;;;;;;5081605;28;20471;-70
2021/03/07 03:53:41;;;;;;;4.13;1.80;;;;;;;;;;5079078;28;20698;-70
2021/03/07 03:56:10;;;;;;;6.70;1.47;;;;;;;;;;5081333;28;20731;-70
2021/03/07 03:58:39;;;;;;;3.10;1.37;;;;;;;;;;5081603;28;20529;-71
2021/03/07 04:01:08;;;;;;;4.87;1.57;;;;;;;;;;5080722;28;20448;-71
2021/03/07 04:03:36;;;;;;;4.30;1.67;;;;;;;;;;5081425;28;20467;-70
2021/03/07 04:06:04;;;;;;;3.33;1.20;;;;;;;;;;5080772;28;20534;-71
2021/03/07 04:08:37;;;;;;;2.10;0.90;;;;;;;;;;5079330;28;20445;-70
2021/03/07 04:11:10;;;;;;;4.40;1.30;;;;;;;;;;5080737;28;20463;-70
2021/03/07 04:13:39;;;;;;;3.40;1.30;;;;;;;;;;5078725;28;20480;-70
2021/03/07 04:16:09;;;;;;;2.00;1.17;;;;;;;;;;5080632;28;20467;-70
2021/03/07 04:18:42;;;;;;;3.33;1.10;;;;;;;;;;5080963;28;20514;-70
2021/03/07 04:21:12;;;;;;;2.50;1.23;;;;;;;;;;5079345;28;20884;-70
2021/03/07 04:23:41;;;;;;;3.27;1.10;;;;;;;;;;5080325;28;20467;-70
2021/03/07 04:26:12;;;;;;;4.97;1.40;;;;;;;;;;5080567;28;20538;-70
2021/03/07 04:28:40;;;;;;;3.43;1.40;;;;;;;;;;5079317;28;20506;-70
2021/03/07 04:31:08;;;;;;;3.60;1.67;;;;;;;;;;5080760;28;20572;-70
2021/03/07 04:33:37;;;;;;;3.90;1.60;;;;;;;;;;5081022;28;20436;-70
2021/03/07 04:36:05;;;;;;;2.63;1.10;;;;;;;;;;5079174;28;20457;-70
2021/03/07 04:38:34;;;;;;;5.90;1.63;;;;;;;;;;5080054;28;20459;-70
2021/03/07 04:41:06;;;;;;;2.57;1.20;;;;;;;;;;5080417;28;20899;-71
2021/03/07 04:43:43;;;;;;;5.13;2.17;;;;;;;;;;5078984;28;20865;-71
2021/03/07 04:46:13;;;;;;;4.40;1.40;;;;;;;;;;5079941;28;21006;-70
2021/03/07 04:48:41;;;;;;;4.23;1.40;;;;;;;;;;5080336;28;20459;-70
2021/03/07 04:51:11;;;;;;;2.70;1.40;;;;;;;;;;5078470;28;20476;-70
2021/03/07 04:53:40;;;;;;;2.13;1.10;;;;;;;;;;5080135;28;20521;-71
2021/03/07 04:56:10;;;;;;;3.33;1.50;;;;;;;;;;5078672;28;20457;-70
2021/03/07 04:58:39;;;;;;;5.83;1.70;;;;;;;;;;5078834;28;20449;-70
2021/03/07 05:01:08;;;;;;;2.60;1.37;;;;;;;;;;5078606;28;20459;-70
2021/03/07 05:03:35;;;;;;;2.87;1.47;;;;;;;;;;5078794;28;20855;-70
2021/03/07 05:06:04;;;;;;;5.70;1.83;;;;;;;;;;5078295;28;20576;-70
2021/03/07 05:08:33;;;;;;;4.90;1.37;;;;;;;;;;5078534;28;20481;-70
2021/03/07 05:11:01;;;;;;;6.10;1.50;;;;;;;;;;5078381;28;20525;-70
2021/03/07 05:13:31;;;;;;;4.47;1.40;;;;;;;;;;5080221;28;20894;-70
2021/03/07 05:15:59;;;;;;;2.67;1.40;;;;;;;;;;5079989;28;20461;-70
2021/03/07 05:18:29;;;;;;;4.43;1.40;;;;;;;;;;5078432;28;20850;-70
2021/03/07 05:20:58;;;;;;;2.00;1.07;;;;;;;;;;5079078;28;20453;-70
2021/03/07 05:23:27;;;;;;;3.20;1.73;;;;;;;;;;5079065;28;20515;-70
2021/03/07 05:25:57;;;;;;;3.47;1.80;;;;;;;;;;5077579;28;20476;-71
2021/03/07 05:28:26;;;;;;;2.93;1.20;;;;;;;;;;5078092;28;20511;-70
2021/03/07 05:30:55;;;;;;;6.33;2.10;;;;;;;;;;5077713;28;20607;-70
2021/03/07 05:33:23;;;;;;;5.03;2.57;;;;;;;;;;5078164;28;20456;-71
2021/03/07 05:35:53;;;;;;;3.50;2.23;;;;;;;;;;5077926;28;20490;-70
2021/03/07 05:38:22;;;;;;;5.00;2.33;;;;;;;;;;5078085;28;20459;-70
2021/03/07 05:40:51;;;;;;;3.67;1.90;;;;;;;;;;5078966;28;20748;-70
2021/03/07 05:43:20;;;;;;;4.10;2.50;;;;;;;;;;5074489;28;20480;-70
2021/03/07 05:45:50;;;;;;;2.77;1.37;;;;;;;;;;5056946;28;20469;-70
2021/03/07 05:48:20;;;;;;;7.40;1.93;;;;;;;;;;5058665;28;20462;-70
2021/03/07 05:50:49;;;;;;;3.17;1.87;;;;;;;;;;5057495;28;20879;-70
2021/03/07 05:53:20;;;;;;;8.10;1.83;;;;;;;;;;5058051;28;20459;-70
2021/03/07 05:55:48;;;;;;;3.73;1.70;;;;;;;;;;5057143;28;20453;-70
2021/03/07 05:58:19;;;;;;;3.23;1.60;;;;;;;;;;5057173;28;20458;-70
2021/03/07 06:00:48;;;;;;;2.50;1.37;;;;;;;;;;5057150;28;20453;-70
2021/03/07 06:03:17;;;;;;;3.40;1.83;;;;;;;;;;5056867;28;20462;-70
2021/03/07 06:05:51;;;;;;;6.37;2.10;;;;;;;;;;5057315;28;20869;-70
2021/03/07 06:08:20;;;;;;;5.40;2.87;;;;;;;;;;5057142;28;20449;-71
2021/03/07 06:10:48;;;;;;;8.20;2.07;;;;;;;;;;5058259;28;20900;-70
2021/03/07 06:13:17;;;;;;;3.03;1.20;;;;;;;;;;5057212;28;20454;-70
2021/03/07 06:15:46;;;;;;;10.60;1.80;;;;;;;;;;5057864;28;20445;-70
2021/03/07 06:18:15;;;;;;;2.73;1.43;;;;;;;;;;5057792;28;20535;-70
2021/03/07 06:20:45;;;;;;;4.57;2.17;;;;;;;;;;5057401;28;20472;-71
2021/03/07 06:23:16;;;;;;;3.93;1.43;;;;;;;;;;5057887;28;20552;-71
2021/03/07 06:25:49;;;;;;;4.90;1.90;;;;;;;;;;5056792;28;20494;-71
2021/03/07 06:28:21;;;;;;;3.50;1.63;;;;;;;;;;5058350;28;20934;-71
2021/03/07 06:30:50;;;;;;;2.90;1.63;;;;;;;;;;5058480;28;20861;-71
2021/03/07 06:33:32;;;;;;;6.70;2.00;;;;;;;;;;5057130;28;20460;-71
2021/03/07 06:36:16;;;;;;;4.90;2.00;;;;;;;;;;5057980;28;20488;-70
2021/03/07 06:38:50;;;;;;;3.20;1.60;;;;;;;;;;5056212;28;20569;-70
2021/03/07 06:41:20;;;;;;;2.60;1.50;;;;;;;;;;5057210;28;20458;-70
2021/03/07 06:43:50;;;;;;;3.87;2.33;;;;;;;;;;5058039;28;20457;-71
2021/03/07 06:46:30;;;;;;;5.00;2.43;;;;;;;;;;5056514;28;20488;-71
2021/03/07 06:48:59;;;;;;;3.87;2.20;;;;;;;;;;5056504;28;20825;-71
2021/03/07 06:51:28;;;;;;;3.73;1.80;;;;;;;;;;5057840;28;20460;-71
2021/03/07 06:54:00;;;;;;;3.63;1.90;;;;;;;;;;5056386;28;20458;-71
2021/03/07 06:56:48;;;;;;;3.03;1.60;;;;;;;;;;5056989;28;20540;-71
2021/03/07 06:59:18;;;;;;;3.30;1.90;;;;;;;;;;5051922;28;20465;-71
2021/03/07 07:01:47;;;;;;;3.20;2.00;;;;;;;;;;5062080;28;20453;-71
2021/03/07 07:04:16;;;;;;;3.80;2.20;;;;;;;;;;5077523;28;21019;-70
2021/03/07 07:06:45;;;;;;;5.60;2.00;;;;;;;;;;5077546;28;20492;-71
2021/03/07 07:09:25;;;;;;;3.63;2.20;;;;;;;;;;5076352;28;20453;-71
2021/03/07 07:11:54;;;;;;;2.73;1.53;;;;;;;;;;5077562;28;20515;-71
2021/03/07 07:14:32;;;;;;;3.00;1.77;;;;;;;;;;5077138;28;20441;-71
2021/03/07 07:17:02;;;;;;;5.93;1.60;;;;;;;;;;5075819;28;20517;-70
2021/03/07 07:19:31;;;;;;;3.50;2.27;;;;;;;;;;5077509;28;20756;-71
2021/03/07 07:22:02;;;;;;;2.80;1.53;;;;;;;;;;5077835;28;20463;-71
2021/03/07 07:24:33;;;;;;;3.80;2.13;;;;;;;;;;5075511;28;20455;-71
2021/03/07 07:27:01;;;;;;;3.20;1.70;;;;;;;;;;5076916;28;20500;-70
2021/03/07 07:29:29;;;;;;;4.10;1.50;;;;;;;;;;5075816;28;20449;-71
2021/03/07 07:32:00;;;;;;;3.80;2.30;;;;;;;;;;5077492;28;20469;-71
2021/03/07 07:34:30;;;;;;;4.07;1.33;;;;;;;;;;5077007;28;20510;-71
2021/03/07 07:37:01;;;;;;;5.43;2.53;;;;;;;;;;5075456;28;20522;-71
2021/03/07 07:39:36;;;;;;;5.00;2.43;;;;;;;;;;5076916;28;20463;-70
2021/03/07 07:42:19;;;;;;;4.17;2.10;;;;;;;;;;5075982;28;20470;-70
2021/03/07 07:44:47;;;;;;;6.07;2.60;;;;;;;;;;5075431;28;20864;-71
2021/03/07 07:47:15;;;;;;;4.37;2.40;;;;;;;;;;5076356;28;20584;-70
2021/03/07 07:50:11;;;;;;;5.13;2.43;;;;;;;;;;5078409;28;20449;-71
2021/03/07 07:52:38;;;;;;;3.03;1.33;;;;;;;;;;5078797;28;20483;-70
2021/03/07 07:55:12;;;;;;;3.13;2.23;;;;;;;;;;5080049;28;20850;-70
2021/03/07 07:57:41;;;;;;;6.23;1.97;;;;;;;;;;5080855;28;20561;-70
2021/03/07 08:00:10;;;;;;;8.73;2.60;;;;;;;;;;5079770;28;20861;-71
2021/03/07 08:02:54;;;;;;;5.73;2.00;;;;;;;;;;5080596;28;20468;-71
2021/03/07 08:05:40;;;;;;;6.13;2.70;;;;;;;;;;5079046;28;20514;-71
2021/03/07 08:08:11;;;;;;;4.20;2.33;;;;;;;;;;5079551;28;20900;-71
2021/03/07 08:10:47;;;;;;;4.40;1.90;;;;;;;;;;5080174;28;20539;-71
2021/03/07 08:16:38;;;;;;;3.60;1.97;;;;;;;;;;5079302;28;20419;-74
2021/03/07 08:19:05;;;;;;;3.93;1.60;;;;;;;;;;5079735;28;20517;-71
2021/03/07 08:21:57;;;;;;;4.30;2.43;;;;;;;;;;5079590;28;20476;-71
2021/03/07 08:24:42;;;;;;;4.10;1.80;;;;;;;;;;5079199;28;20715;-71
2021/03/07 08:27:11;;;;;;;7.63;2.10;;;;;;;;;;5079914;28;20489;-71
2021/03/07 08:29:48;;;;;;;4.70;1.47;;;;;;;;;;5078985;28;20561;-71
2021/03/07 08:32:37;;;;;;;6.60;1.67;;;;;;;;;;5069924;28;20471;-71
2021/03/07 08:35:12;;;;;;;4.07;1.93;;;;;;;;;;5076872;28;20521;-71
2021/03/07 08:37:40;;;;;;;3.00;1.83;;;;;;;;;;5078956;28;20467;-70
2021/03/07 08:40:26;;;;;;;4.43;1.47;;;;;;;;;;5078909;28;20995;-70
2021/03/07 08:42:56;;;;;;;7.10;1.90;;;;;;;;;;5078655;28;20484;-71
2021/03/07 08:45:24;;;;;;;2.30;0.90;;;;;;;;;;5078616;28;20457;-71
2021/03/07 08:47:56;;;;;;;6.13;1.97;;;;;;;;;;5079331;28;20546;-71
2021/03/07 08:50:25;;;;;;;4.30;1.83;;;;;;;;;;5068220;28;20558;-70
2021/03/07 08:52:53;;;;;;;3.00;1.60;;;;;;;;;;5059088;28;20457;-71
2021/03/07 08:55:22;;;;;;;4.70;2.17;;;;;;;;;;5059920;28;20457;-70
2021/03/07 08:57:52;;;;;;;4.17;2.37;;;;;;;;;;5058320;28;20808;-71
2021/03/07 09:00:22;;;;;;;6.17;1.90;;;;;;;;;;5072524;28;20452;-71
2021/03/07 09:02:52;;;;;;;4.97;2.07;;;;;;;;;;5079606;28;20471;-71
2021/03/07 09:05:33;;;;;;;4.43;1.80;;;;;;;;;;5078275;28;20456;-71
2021/03/07 09:08:02;;;;;;;2.93;1.40;;;;;;;;;;5078934;28;20491;-71
2021/03/07 09:10:34;;;;;;;4.00;1.90;;;;;;;;;;5078706;28;20453;-71
2021/03/07 09:13:09;;;;;;;4.20;1.67;;;;;;;;;;5078380;28;20457;-70
2021/03/07 09:15:38;;;;;;;6.87;2.30;;;;;;;;;;5078744;28;20455;-70
2021/03/07 09:18:06;;;;;;;4.80;1.70;;;;;;;;;;5077845;28;20456;-70
2021/03/07 09:20:41;;;;;;;7.73;3.03;;;;;;;;;;5078517;28;20459;-70
2021/03/07 09:23:23;;;;;;;7.20;1.93;;;;;;;;;;5079268;28;20506;-70
2021/03/07 09:25:51;;;;;;;4.77;1.83;;;;;;;;;;5076510;28;20476;-70
2021/03/07 09:28:30;;;;;;;7.37;2.07;;;;;;;;;;5058786;28;20493;-71
2021/03/07 09:30:58;;;;;;;3.10;1.50;;;;;;;;;;5059742;28;20437;-70
2021/03/07 09:33:27;;;;;;;12.77;2.83;;;;;;;;;;5057944;28;20472;-71
2021/03/07 09:36:02;;;;;;;9.27;2.50;;;;;;;;;;5058499;28;20473;-70
2021/03/07 09:38:40;;;;;;;6.20;2.27;;;;;;;;;;5058015;28;20460;-70
2021/03/07 09:41:08;;;;;;;3.07;1.57;;;;;;;;;;5057350;28;20450;-70
2021/03/07 09:43:38;;;;;;;5.70;2.47;;;;;;;;;;5058924;28;20505;-70
2021/03/07 09:46:07;;;;;;;4.13;1.70;;;;;;;;;;5056655;28;20743;-70
2021/03/07 09:48:35;;;;;;;4.40;2.07;;;;;;;;;;5059012;28;20453;-70
2021/03/07 09:51:04;;;;;;;5.27;2.00;;;;;;;;;;5057193;28;20464;-71
2021/03/07 09:53:32;;;;;;;8.67;2.53;;;;;;;;;;5057578;28;20729;-70
2021/03/07 09:55:59;;;;;;;4.83;2.50;;;;;;;;;;5057111;28;20460;-70
2021/03/07 09:58:35;;;;;;;3.80;1.93;;;;;;;;;;5057383;28;20453;-71
2021/03/07 10:01:05;;;;;;;10.40;3.10;;;;;;;;;;5078010;28;20452;-71
2021/03/07 10:03:35;;;;;;;4.10;1.80;;;;;;;;;;5076615;28;20517;-70
2021/03/07 10:06:09;;;;;;;3.30;1.30;;;;;;;;;;5075698;28;20510;-71
2021/03/07 10:08:37;;;;;;;3.87;1.80;;;;;;;;;;5075062;28;20735;-71
2021/03/07 10:11:11;;;;;;;3.50;2.00;;;;;;;;;;5075296;28;20456;-71
2021/03/07 10:13:39;;;;;;;3.87;1.97;;;;;;;;;;5075774;28;20452;-70
2021/03/07 10:16:06;;;;;;;4.00;1.60;;;;;;;;;;5075319;28;20854;-71
2021/03/07 10:18:43;;;;;;;5.90;2.37;;;;;;;;;;5074852;28;20492;-70
2021/03/07 10:21:14;;;;;;;6.30;2.50;;;;;;;;;;5075374;28;20475;-70
2021/03/07 10:23:41;;;;;;;7.93;2.87;;;;;;;;;;5074881;28;20453;-70
2021/03/07 10:26:08;;;;;;;13.93;2.70;;;;;;;;;;5075785;28;20449;-70
2021/03/07 10:28:36;;;;;;;5.17;2.63;;;;;;;;;;5075763;28;20480;-70
2021/03/07 10:31:15;;;;;;;4.53;1.97;;;;;;;;;;5074508;28;20453;-70
2021/03/07 10:33:43;;;;;;;5.20;2.63;;;;;;;;;;5074146;28;20480;-70
2021/03/07 10:36:12;;;;;;;8.03;2.30;;;;;;;;;;5075519;28;20581;-70
2021/03/07 10:38:40;;;;;;;4.40;1.30;;;;;;;;;;5075975;28;20453;-70
2021/03/07 10:41:21;;;;;;;9.63;2.30;;;;;;;;;;5074620;28;20715;-70
2021/03/07 10:43:49;;;;;;;6.13;2.00;;;;;;;;;;5076676;28;20466;-70
2021/03/07 10:46:29;;;;;;;5.43;2.80;;;;;;;;;;5074268;28;20472;-70
2021/03/07 10:48:58;;;;;;;9.50;2.20;;;;;;;;;;5076936;28;20701;-70
2021/03/07 10:51:25;;;;;;;6.97;2.70;;;;;;;;;;5075677;28;20863;-70
2021/03/07 10:53:53;;;;;;;6.63;2.17;;;;;;;;;;5076254;28;20576;-70
2021/03/07 10:56:20;;;;;;;6.00;3.50;;;;;;;;;;5075824;28;20458;-71
2021/03/07 10:58:48;;;;;;;4.90;2.27;;;;;;;;;;5076003;28;20463;-70
2021/03/07 11:01:16;;;;;;;5.93;1.93;;;;;;;;;;5075749;28;20449;-70
2021/03/07 11:03:43;;;;;;;8.07;1.83;;;;;;;;;;5076104;28;20888;-71
2021/03/07 11:06:12;;;;;;;4.53;1.77;;;;;;;;;;5077229;28;20451;-71
2021/03/07 11:08:40;;;;;;;8.27;2.60;;;;;;;;;;5076472;28;20489;-71
2021/03/07 11:11:07;;;;;;;8.07;3.00;;;;;;;;;;5075295;28;20511;-71
2021/03/07 11:13:35;;;;;;;10.00;2.20;;;;;;;;;;5077263;28;20573;-71
2021/03/07 11:16:03;;;;;;;4.63;2.10;;;;;;;;;;5075255;28;21010;-70
2021/03/07 11:18:31;;;;;;;4.60;2.50;;;;;;;;;;5075726;28;20457;-71
2021/03/07 11:21:02;;;;;;;11.17;2.60;;;;;;;;;;5075802;28;20462;-71
2021/03/07 11:23:31;;;;;;;8.40;3.80;;;;;;;;;;5077793;28;20753;-71
2021/03/07 11:25:59;;;;;;;7.03;2.83;;;;;;;;;;5079216;28;20533;-70
2021/03/07 11:28:27;;;;;;;7.60;2.83;;;;;;;;;;5077647;28;20477;-71
2021/03/07 11:30:54;;;;;;;7.00;3.13;;;;;;;;;;5079583;28;20895;-70
2021/03/07 11:33:22;;;;;;;5.37;2.90;;;;;;;;;;5077208;28;20459;-71
2021/03/07 11:35:49;;;;;;;6.87;3.50;;;;;;;;;;5078240;28;20733;-71
2021/03/07 11:38:17;;;;;;;7.23;2.50;;;;;;;;;;5079640;28;20510;-71
2021/03/07 11:40:45;;;;;;;4.40;2.17;;;;;;;;;;5078271;28;20453;-70
2021/03/07 11:43:13;;;;;;;6.50;2.97;;;;;;;;;;5074240;28;20461;-71
2021/03/07 11:45:41;;;;;;;6.93;2.80;;;;;;;;;;5077940;28;20877;-71
2021/03/07 11:48:09;;;;;;;7.20;3.00;;;;;;;;;;5077006;28;20496;-71
2021/03/07 11:50:37;;;;;;;5.30;2.57;;;;;;;;;;5078651;28;20876;-71
2021/03/07 11:53:05;;;;;;;7.00;1.90;;;;;;;;;;5078382;28;20809;-70
2021/03/07 11:55:32;;;;;;;9.33;2.20;;;;;;;;;;5078758;28;20484;-71
2021/03/07 11:58:00;;;;;;;5.17;2.60;;;;;;;;;;5078520;28;20463;-70
2021/03/07 12:00:28;;;;;;;5.10;2.27;;;;;;;;;;5078277;28;20472;-71
2021/03/07 12:02:56;;;;;;;11.23;3.30;;;;;;;;;;5061910;28;20446;-71
2021/03/07 12:05:23;;;;;;;8.50;2.67;;;;;;;;;;5058181;28;20458;-71
2021/03/07 12:07:51;;;;;;;9.83;2.53;;;;;;;;;;5057916;28;20606;-70
2021/03/07 12:10:19;;;;;;;8.10;3.23;;;;;;;;;;5057769;28;20473;-70
2021/03/07 12:12:46;;;;;;;7.53;3.10;;;;;;;;;;5067597;28;20462;-71
2021/03/07 12:15:16;;;;;;;11.00;2.70;;;;;;;;;;5078292;28;20469;-71
2021/03/07 12:17:44;;;;;;;10.27;3.80;;;;;;;;;;5078291;28;20461;-71
2021/03/07 12:20:11;;;;;;;5.63;2.17;;;;;;;;;;5078541;28;20897;-70
2021/03/07 12:22:39;;;;;;;6.83;3.50;;;;;;;;;;5079166;28;20458;-70
2021/03/07 12:25:11;;;;;;;9.63;2.63;;;;;;;;;;5079535;28;20880;-71
2021/03/07 12:27:39;;;;;;;7.33;2.27;;;;;;;;;;5077870;28;20509;-70
2021/03/07 12:30:11;;;;;;;5.07;1.93;;;;;;;;;;5078576;28;21055;-70
2021/03/07 12:32:39;;;;;;;6.03;2.60;;;;;;;;;;5078556;28;20606;-70
2021/03/07 12:35:07;;;;;;;8.03;3.50;;;;;;;;;;5077680;28;20888;-70
2021/03/07 12:37:36;;;;;;;6.80;2.40;;;;;;;;;;5078359;28;20882;-70
2021/03/07 12:40:03;;;;;;;9.97;3.10;;;;;;;;;;5078916;28;20460;-70
2021/03/07 12:42:31;;;;;;;4.07;1.53;;;;;;;;;;5078204;28;20865;-70
2021/03/07 12:44:59;;;;;;;8.03;2.90;;;;;;;;;;5078553;28;20696;-71
2021/03/07 12:47:26;;;;;;;5.20;3.03;;;;;;;;;;5077035;28;20480;-70
2021/03/07 12:49:55;;;;;;;6.83;2.40;;;;;;;;;;5078706;28;20478;-70
2021/03/07 12:52:22;;;;;;;8.10;3.57;;;;;;;;;;5079392;28;20461;-70
2021/03/07 12:54:49;;;;;;;9.40;2.80;;;;;;;;;;5077510;28;20632;-70
2021/03/07 12:57:17;;;;;;;7.10;3.23;;;;;;;;;;5079832;28;20463;-70
2021/03/07 12:59:44;;;;;;;8.30;3.43;;;;;;;;;;5077707;28;20459;-70
2021/03/07 13:02:12;;;;;;;8.50;4.30;;;;;;;;;;5078582;28;20852;-71
2021/03/07 13:04:39;;;;;;;10.90;3.87;;;;;;;;;;5078444;28;20461;-71
2021/03/07 13:07:18;;;;;;;7.60;3.20;;;;;;;;;;5077884;28;20541;-70
2021/03/07 13:09:50;;;;;;;6.60;4.60;;;;;;;;;;5079610;28;20453;-71
2021/03/07 13:12:17;;;;;;;8.87;4.27;;;;;;;;;;5067015;28;20465;-71
2021/03/07 13:14:54;;;;;;;8.50;4.10;;;;;;;;;;5078254;28;20449;-70
2021/03/07 13:17:35;;;;;;;7.33;4.17;;;;;;;;;;5078666;28;20467;-71
2021/03/07 13:20:16;;;;;;;7.83;4.90;;;;;;;;;;5076277;28;20868;-70
2021/03/07 13:22:45;;;;;;;5.00;2.80;;;;;;;;;;5078561;28;20512;-70
2021/03/07 13:25:15;;;;;;;5.63;3.40;;;;;;;;;;5069210;28;20466;-70
2021/03/07 13:27:53;;;;;;;10.17;4.30;;;;;;;;;;5072764;28;20481;-69
2021/03/07 13:30:23;;;;;;;9.53;4.20;;;;;;;;;;5077009;28;20457;-70
2021/03/07 13:32:55;;;;;;;8.53;4.87;;;;;;;;;;5076148;28;20463;-70
2021/03/07 13:35:27;;;;;;;7.47;3.80;;;;;;;;;;5072107;28;20473;-71
2021/03/07 13:38:02;;;;;;;16.40;5.70;;;;;;;;;;5076928;28;20475;-71
2021/03/07 13:40:31;;;;;;;10.93;6.13;;;;;;;;;;5076791;28;20460;-70
2021/03/07 13:42:59;;;;;;;10.03;5.43;;;;;;;;;;5066688;28;20450;-70
2021/03/07 13:45:27;;;;;;;11.20;5.37;;;;;;;;;;5055483;28;21036;-70
2021/03/07 13:47:55;;;;;;;12.33;5.33;;;;;;;;;;5073230;28;20480;-70
2021/03/07 13:50:22;;;;;;;10.13;5.50;;;;;;;;;;5076752;28;20449;-69
2021/03/07 13:52:50;;;;;;;8.53;5.33;;;;;;;;;;5074912;28;20457;-70
2021/03/07 13:55:19;;;;;;;6.57;4.43;;;;;;;;;;5077204;28;20479;-70
2021/03/07 13:57:47;;;;;;;6.00;3.40;;;;;;;;;;5076987;28;20869;-70
2021/03/07 14:00:15;;;;;;;6.93;4.90;;;;;;;;;;5076151;28;20488;-71
2021/03/07 14:02:44;;;;;;;8.67;5.43;;;;;;;;;;5076661;28;20488;-70
2021/03/07 14:05:13;;;;;;;12.47;5.33;;;;;;;;;;5076903;28;20853;-71
2021/03/07 14:07:40;;;;;;;7.77;4.47;;;;;;;;;;5075317;28;20927;-71
2021/03/07 14:10:12;;;;;;;11.50;5.80;;;;;;;;;;5078203;28;20453;-71
2021/03/07 14:12:41;;;;;;;12.57;6.03;;;;;;;;;;5076371;28;20464;-71
2021/03/07 14:15:10;;;;;;;9.63;5.10;;;;;;;;;;5075382;28;20453;-71
2021/03/07 14:17:38;;;;;;;12.27;5.33;;;;;;;;;;5076934;28;20542;-70
2021/03/07 14:20:07;;;;;;;11.07;6.03;;;;;;;;;;5075852;28;20484;-70
2021/03/07 14:22:35;;;;;;;11.80;5.90;;;;;;;;;;5077713;28;20552;-69
2021/03/07 14:25:09;;;;;;;14.87;7.10;;;;;;;;;;5076973;28;20811;-71
2021/03/07 14:27:37;;;;;;;10.13;6.00;;;;;;;;;;5076106;28;20485;-71
2021/03/07 14:30:08;;;;;;;20.03;5.37;;;;;;;;;;5076488;28;20459;-71
2021/03/07 14:32:38;;;;;;;11.63;6.07;;;;;;;;;;5077287;28;20800;-70
2021/03/07 14:35:06;;;;;;;10.90;5.70;;;;;;;;;;5071463;28;20864;-74
2021/03/07 14:37:33;;;;;;;13.10;5.83;;;;;;;;;;5076857;28;20494;-70
2021/03/07 14:40:01;;;;;;;11.27;6.00;;;;;;;;;;5077119;28;20450;-71
2021/03/07 14:42:45;;;;;;;10.83;6.03;;;;;;;;;;5076397;28;20477;-71
2021/03/07 14:45:17;;;;;;;16.20;6.33;;;;;;;;;;5075383;28;20723;-71
2021/03/07 14:47:45;;;;;;;13.97;6.60;;;;;;;;;;5071655;28;20487;-71
2021/03/07 14:53:16;;;;;;;12.40;6.53;;;;;;;;;;5075688;28;20416;-71
2021/03/07 14:55:43;;;;;;;13.20;7.07;;;;;;;;;;5075532;28;20737;-71
2021/03/07 14:58:11;;;;;;;11.03;6.73;;;;;;;;;;5075001;28;20521;-70
2021/03/07 15:00:40;;;;;;;20.33;7.20;;;;;;;;;;5075877;28;20506;-70
2021/03/07 15:03:33;;;;;;;9.93;6.83;;;;;;;;;;5075060;28;20529;-70